createdAt,value
2022-12-18T00:01:32.757Z,59.80
2022-12-18T00:04:03.699Z,64.03
2022-12-18T00:06:31.860Z,59.63
2022-12-18T00:09:00.900Z,60.00
2022-12-18T00:11:31.678Z,64.43
2022-12-18T00:14:02.029Z,54.63
2022-12-18T00:16:36.456Z,60.93
2022-12-18T00:19:05.994Z,67.83
2022-12-18T00:21:34.664Z,65.30
2022-12-18T00:24:02.887Z,61.80
2022-12-18T00:26:33.523Z,58.50
2022-12-18T00:29:14.876Z,65.93
2022-12-18T00:31:44.041Z,60.23
2022-12-18T00:34:14.127Z,60.47
2022-12-18T00:36:42.463Z,62.03
2022-12-18T00:39:11.813Z,55.60
2022-12-18T00:41:57.601Z,62.63
2022-12-18T00:44:25.135Z,61.43
2022-12-18T00:46:52.357Z,66.77
2022-12-18T00:49:21.190Z,62.53
2022-12-18T00:51:49.055Z,59.93
2022-12-18T00:54:17.122Z,63.60
2022-12-18T00:56:51.447Z,62.93
2022-12-18T00:59:19.679Z,59.83
2022-12-18T01:01:48.221Z,58.80
2022-12-18T01:04:16.248Z,64.83
2022-12-18T01:06:43.500Z,56.97
2022-12-18T01:09:13.799Z,58.63
2022-12-18T01:11:41.493Z,61.37
2022-12-18T01:14:09.677Z,58.50
2022-12-18T01:16:36.894Z,65.93
2022-12-18T01:19:04.429Z,62.80
2022-12-18T01:21:31.866Z,61.17
2022-12-18T01:23:59.913Z,62.10
2022-12-18T01:26:30.616Z,60.23
2022-12-18T01:28:59.441Z,59.93
2022-12-18T01:31:33.073Z,57.33
2022-12-18T01:34:06.151Z,63.43
2022-12-18T01:36:37.865Z,60.27
2022-12-18T01:39:14.043Z,55.50
2022-12-18T01:42:00.945Z,59.67
2022-12-18T01:45:03.433Z,58.37
2022-12-18T01:47:37.821Z,62.83
2022-12-18T01:50:24.632Z,54.57
2022-12-18T01:53:01.292Z,55.00
2022-12-18T01:55:36.106Z,52.70
2022-12-18T01:58:04.628Z,50.60
2022-12-18T02:00:32.760Z,54.77
2022-12-18T02:03:00.117Z,50.97
2022-12-18T02:06:05.754Z,56.10
2022-12-18T02:08:52.016Z,52.47
2022-12-18T02:11:58.295Z,47.53
2022-12-18T02:15:04.562Z,54.27
2022-12-18T02:17:38.852Z,55.50
2022-12-18T02:20:19.124Z,56.47
2022-12-18T02:22:55.066Z,53.43
2022-12-18T02:25:48.914Z,57.00
2022-12-18T02:28:21.866Z,51.67
2022-12-18T02:30:53.507Z,58.33
2022-12-18T02:33:25.221Z,58.03
2022-12-18T02:35:55.460Z,59.50
2022-12-18T02:38:26.114Z,58.90
2022-12-18T02:40:55.114Z,61.60
2022-12-18T02:43:22.621Z,60.13
2022-12-18T02:45:55.899Z,63.20
2022-12-18T02:48:33.446Z,59.00
2022-12-18T02:51:30.175Z,64.83
2022-12-18T02:54:23.950Z,68.73
2022-12-18T02:56:56.938Z,57.00
2022-12-18T02:59:42.173Z,64.07
2022-12-18T03:02:24.677Z,67.27
2022-12-18T03:05:18.771Z,61.30
2022-12-18T03:07:58.309Z,63.57
2022-12-18T03:10:32.151Z,59.77
2022-12-18T03:13:16.698Z,64.77
2022-12-18T03:15:50.629Z,63.63
2022-12-18T03:18:28.651Z,60.53
2022-12-18T03:21:03.929Z,60.60
2022-12-18T03:23:40.731Z,61.40
2022-12-18T03:26:18.561Z,65.73
2022-12-18T03:28:56.853Z,64.23
2022-12-18T03:31:27.493Z,68.97
2022-12-18T03:34:00.480Z,63.87
2022-12-18T03:36:28.910Z,60.87
2022-12-18T03:38:56.204Z,67.37
2022-12-18T03:41:50.549Z,65.27
2022-12-18T03:44:51.089Z,64.27
2022-12-18T03:47:36.262Z,65.20
2022-12-18T03:50:48.235Z,62.17
2022-12-18T03:53:59.073Z,63.50
2022-12-18T03:56:34.182Z,64.20
2022-12-18T03:59:05.670Z,71.20
2022-12-18T04:01:40.242Z,65.13
2022-12-18T04:04:10.992Z,58.47
2022-12-18T04:06:40.924Z,71.87
2022-12-18T04:09:09.233Z,67.53
2022-12-18T04:11:36.529Z,65.23
2022-12-18T04:14:07.190Z,64.83
2022-12-18T04:16:34.709Z,66.13
2022-12-18T04:19:02.339Z,62.10
2022-12-18T04:21:29.581Z,70.83
2022-12-18T04:23:57.094Z,66.27
2022-12-18T04:26:24.447Z,58.83
2022-12-18T04:28:51.959Z,63.70
2022-12-18T04:31:19.254Z,65.27
2022-12-18T04:33:46.773Z,65.63
2022-12-18T04:36:14.144Z,64.30
2022-12-18T04:38:41.889Z,70.53
2022-12-18T04:41:09.298Z,68.80
2022-12-18T04:43:36.997Z,78.00
2022-12-18T04:46:09.485Z,70.03
2022-12-18T04:48:38.311Z,69.93
2022-12-18T04:51:07.090Z,81.13
2022-12-18T04:53:34.883Z,71.40
2022-12-18T04:56:11.768Z,72.37
2022-12-18T04:58:41.459Z,64.93
2022-12-18T05:01:10.358Z,65.73
2022-12-18T05:03:39.766Z,80.63
2022-12-18T05:06:08.582Z,77.83
2022-12-18T05:08:36.528Z,74.67
2022-12-18T05:11:11.288Z,78.50
2022-12-18T05:13:39.910Z,78.53
2022-12-18T05:16:08.679Z,77.90
2022-12-18T05:18:36.870Z,83.93
2022-12-18T05:21:04.630Z,75.03
2022-12-18T05:23:32.662Z,82.60
2022-12-18T05:26:03.359Z,76.80
2022-12-18T05:28:33.078Z,83.13
2022-12-18T05:31:03.485Z,77.57
2022-12-18T05:33:35.543Z,83.27
2022-12-18T05:36:06.707Z,77.77
2022-12-18T05:38:37.665Z,73.83
2022-12-18T05:41:06.593Z,80.57
2022-12-18T05:43:37.542Z,78.83
2022-12-18T05:46:14.028Z,89.50
2022-12-18T05:48:42.896Z,71.70
2022-12-18T05:51:15.547Z,80.97
2022-12-18T05:53:44.395Z,87.00
2022-12-18T05:56:21.402Z,87.00
2022-12-18T05:58:54.203Z,81.03
2022-12-18T06:01:26.464Z,77.63
2022-12-18T06:03:54.964Z,86.13
2022-12-18T06:06:28.713Z,88.07
2022-12-18T06:08:57.686Z,90.33
2022-12-18T06:11:28.181Z,88.27
2022-12-18T06:13:59.327Z,88.93
2022-12-18T06:16:28.840Z,91.73
2022-12-18T06:19:02.738Z,79.33
2022-12-18T06:21:31.679Z,88.73
2022-12-18T06:24:00.983Z,84.03
2022-12-18T06:26:28.755Z,82.77
2022-12-18T06:28:56.560Z,82.87
2022-12-18T06:31:23.898Z,84.93
2022-12-18T06:33:51.581Z,92.10
2022-12-18T06:36:18.908Z,97.33
2022-12-18T06:38:46.456Z,90.60
2022-12-18T06:41:20.921Z,84.47
2022-12-18T06:43:48.714Z,89.07
2022-12-18T06:46:16.533Z,90.50
2022-12-18T06:48:47.372Z,94.70
2022-12-18T06:51:21.939Z,96.77
2022-12-18T06:53:49.941Z,95.87
2022-12-18T06:56:17.623Z,95.77
2022-12-18T06:58:45.373Z,91.23
2022-12-18T07:01:14.865Z,108.20
2022-12-18T07:03:44.586Z,102.10
2022-12-18T07:06:21.184Z,113.33
2022-12-18T07:08:50.669Z,108.90
2022-12-18T07:11:19.147Z,102.17
2022-12-18T07:13:47.877Z,178.33
2022-12-18T07:16:25.159Z,125.63
2022-12-18T07:18:55.829Z,102.23
2022-12-18T07:21:25.311Z,94.23
2022-12-18T07:23:53.335Z,82.23
2022-12-18T07:26:22.953Z,89.90
2022-12-18T07:28:51.334Z,90.13
2022-12-18T07:31:22.812Z,96.73
2022-12-18T07:33:51.889Z,101.13
2022-12-18T07:36:20.446Z,114.53
2022-12-18T07:38:53.541Z,118.37
2022-12-18T07:41:22.292Z,105.80
2022-12-18T07:43:49.831Z,106.23
2022-12-18T07:46:18.769Z,89.20
2022-12-18T07:48:49.349Z,92.00
2022-12-18T07:51:19.583Z,81.93
2022-12-18T07:53:49.763Z,92.03
2022-12-18T07:56:30.373Z,83.80
2022-12-18T07:59:00.216Z,91.30
2022-12-18T08:01:28.666Z,96.60
2022-12-18T08:03:56.149Z,97.57
2022-12-18T08:06:24.824Z,100.43
2022-12-18T08:08:54.618Z,97.20
2022-12-18T08:11:24.341Z,83.83
2022-12-18T08:13:52.194Z,76.33
2022-12-18T08:16:21.626Z,82.73
2022-12-18T08:18:49.747Z,89.50
2022-12-18T08:21:26.373Z,87.93
2022-12-18T08:23:56.755Z,101.57
2022-12-18T08:26:26.894Z,82.20
2022-12-18T08:28:57.193Z,81.40
2022-12-18T08:31:26.132Z,77.43
2022-12-18T08:33:55.421Z,99.60
2022-12-18T08:36:24.355Z,93.83
2022-12-18T08:38:52.881Z,92.30
2022-12-18T08:41:20.821Z,89.47
2022-12-18T08:44:06.743Z,88.77
2022-12-18T08:46:43.382Z,87.75
2022-12-18T08:49:12.723Z,90.47
2022-12-18T08:51:40.796Z,91.40
2022-12-18T08:54:08.368Z,92.65
2022-12-18T08:56:36.259Z,97.95
2022-12-18T08:59:05.387Z,99.35
2022-12-18T09:01:33.284Z,87.60
2022-12-18T09:04:01.564Z,85.95
2022-12-18T09:06:29.069Z,87.15
2022-12-18T09:08:56.313Z,75.78
2022-12-18T09:11:27.416Z,79.80
2022-12-18T09:13:57.019Z,80.78
2022-12-18T09:16:31.644Z,85.35
2022-12-18T09:19:00.956Z,74.65
2022-12-18T09:21:37.021Z,78.78
2022-12-18T09:24:08.506Z,73.95
2022-12-18T09:26:36.996Z,74.13
2022-12-18T09:29:05.048Z,72.82
2022-12-18T09:31:32.642Z,98.50
2022-12-18T09:33:59.970Z,75.78
2022-12-18T09:36:27.653Z,74.47
2022-12-18T09:38:54.903Z,66.40
2022-12-18T09:41:45.432Z,67.68
2022-12-18T09:44:24.359Z,68.28
2022-12-18T09:47:07.581Z,73.93
2022-12-18T09:49:43.089Z,71.40
2022-12-18T09:52:28.923Z,74.53
2022-12-18T09:55:29.890Z,80.05
2022-12-18T09:58:25.712Z,71.35
2022-12-18T10:00:54.632Z,66.30
2022-12-18T10:03:22.955Z,69.88
2022-12-18T10:06:41.199Z,71.03
2022-12-18T10:09:50.169Z,69.22
2022-12-18T10:12:45.847Z,71.30
2022-12-18T10:15:31.525Z,72.57
2022-12-18T10:18:22.181Z,69.80
2022-12-18T10:21:00.049Z,72.70
2022-12-18T10:24:00.151Z,70.75
2022-12-18T10:26:27.717Z,65.00
2022-12-18T10:28:56.947Z,57.85
2022-12-18T10:31:26.277Z,70.95
2022-12-18T10:33:56.221Z,63.88
2022-12-18T10:36:25.811Z,66.47
2022-12-18T10:38:53.197Z,68.47
2022-12-18T10:41:23.130Z,61.83
2022-12-18T10:44:13.207Z,66.82
2022-12-18T10:46:41.765Z,50.22
2022-12-18T10:49:25.027Z,44.47
2022-12-18T10:52:08.412Z,49.08
2022-12-18T10:54:37.374Z,51.03
2022-12-18T10:57:41.577Z,56.00
2022-12-18T11:00:31.476Z,49.85
2022-12-18T11:02:59.372Z,53.78
2022-12-18T11:05:35.405Z,55.03
2022-12-18T11:08:04.174Z,53.95
2022-12-18T11:10:41.103Z,61.38
2022-12-18T11:13:23.123Z,46.58
2022-12-18T11:15:51.876Z,45.42
2022-12-18T11:18:28.570Z,44.55
2022-12-18T11:21:07.311Z,43.72
2022-12-18T11:23:37.591Z,44.67
2022-12-18T11:26:07.236Z,41.85
2022-12-18T11:29:10.423Z,39.58
2022-12-18T11:31:37.758Z,42.75
2022-12-18T11:34:32.445Z,41.78
2022-12-18T11:37:04.152Z,43.25
2022-12-18T11:39:50.859Z,41.60
2022-12-18T11:42:44.074Z,34.45
2022-12-18T11:45:14.727Z,35.33
2022-12-18T11:48:06.911Z,35.97
2022-12-18T11:50:59.665Z,37.95
2022-12-18T11:53:28.840Z,30.00
2022-12-18T11:56:31.012Z,28.27
2022-12-18T11:59:04.582Z,29.27
2022-12-18T12:01:56.299Z,24.30
2022-12-18T12:05:07.644Z,29.25
2022-12-18T12:08:11.079Z,30.15
2022-12-18T12:10:48.827Z,28.95
2022-12-18T12:13:57.293Z,31.00
2022-12-18T12:16:34.761Z,32.45
2022-12-18T12:19:28.388Z,31.80
2022-12-18T12:22:21.701Z,32.22
2022-12-18T12:25:47.194Z,28.67
2022-12-18T12:28:31.291Z,28.70
2022-12-18T12:31:38.321Z,31.27
2022-12-18T12:34:27.621Z,32.28
2022-12-18T12:37:38.053Z,30.42
2022-12-18T12:40:26.808Z,34.58
2022-12-18T12:43:24.389Z,29.55
2022-12-18T12:46:02.358Z,31.67
2022-12-18T12:48:45.567Z,31.17
2022-12-18T12:51:36.623Z,31.70
2022-12-18T12:54:14.161Z,40.70
2022-12-18T12:56:50.800Z,35.10
2022-12-18T12:59:41.403Z,34.05
2022-12-18T13:02:57.610Z,34.17
2022-12-18T13:05:35.691Z,37.15
2022-12-18T13:08:28.573Z,37.63
2022-12-18T13:11:19.766Z,36.55
2022-12-18T13:13:57.166Z,32.40
2022-12-18T13:16:30.645Z,31.08
2022-12-18T13:18:59.853Z,34.00
2022-12-18T13:21:32.080Z,34.58
2022-12-18T13:24:28.285Z,35.13
2022-12-18T13:26:55.878Z,36.28
2022-12-18T13:29:46.961Z,35.10
2022-12-18T13:32:25.403Z,39.05
2022-12-18T13:35:18.173Z,36.50
2022-12-18T13:37:54.413Z,37.30
2022-12-18T13:40:39.868Z,33.63
2022-12-18T13:43:35.628Z,40.50
2022-12-18T13:46:23.857Z,39.53
2022-12-18T13:48:59.432Z,40.15
2022-12-18T13:51:28.192Z,43.13
2022-12-18T13:54:00.706Z,38.08
2022-12-18T13:56:34.525Z,52.42
2022-12-18T13:59:15.906Z,46.95
2022-12-18T14:02:06.643Z,49.45
2022-12-18T14:04:37.007Z,66.65
2022-12-18T14:07:23.569Z,62.72
2022-12-18T14:10:18.887Z,59.22
2022-12-18T14:13:00.677Z,78.07
2022-12-18T14:15:45.459Z,74.35
2022-12-18T14:18:43.398Z,69.55
2022-12-18T14:21:31.173Z,71.22
2022-12-18T14:24:24.684Z,67.55
2022-12-18T14:26:52.791Z,67.60
2022-12-18T14:29:32.068Z,75.20
2022-12-18T14:32:17.691Z,70.82
2022-12-18T14:34:51.832Z,70.07
2022-12-18T14:37:26.636Z,65.15
2022-12-18T14:39:59.159Z,63.45
2022-12-18T14:42:29.407Z,63.47
2022-12-18T14:45:43.231Z,65.13
2022-12-18T14:48:48.581Z,69.80
2022-12-18T14:51:25.870Z,75.25
2022-12-18T14:54:01.491Z,82.22
2022-12-18T14:56:33.402Z,86.43
2022-12-18T14:59:25.680Z,92.93
2022-12-18T15:02:01.950Z,104.13
2022-12-18T15:04:44.492Z,99.45
2022-12-18T15:07:23.825Z,92.95
2022-12-18T15:10:19.048Z,90.97
2022-12-18T15:12:56.131Z,89.72
2022-12-18T15:15:38.716Z,87.00
2022-12-18T15:18:09.687Z,93.80
2022-12-18T15:21:01.205Z,102.47
2022-12-18T15:24:00.777Z,95.57
2022-12-18T15:26:39.426Z,102.10
2022-12-18T15:29:10.140Z,88.43
2022-12-18T15:31:40.377Z,102.13
2022-12-18T15:34:21.657Z,100.80
2022-12-18T15:36:52.161Z,100.35
2022-12-18T15:39:19.518Z,96.97
2022-12-18T15:42:06.638Z,98.93
2022-12-18T15:44:35.222Z,107.57
2022-12-18T15:47:03.151Z,95.70
2022-12-18T15:49:30.502Z,103.05
2022-12-18T15:52:03.067Z,97.95
2022-12-18T15:54:48.870Z,90.73
2022-12-18T15:57:24.938Z,101.63
2022-12-18T15:59:55.215Z,93.10
2022-12-18T16:02:24.024Z,93.80
2022-12-18T16:04:53.819Z,89.77
2022-12-18T16:07:25.582Z,104.97
2022-12-18T16:09:54.031Z,105.67
2022-12-18T16:12:26.172Z,88.57
2022-12-18T16:14:53.559Z,96.87
2022-12-18T16:17:21.288Z,110.03
2022-12-18T16:19:48.775Z,103.20
2022-12-18T16:22:29.047Z,96.78
2022-12-18T16:24:58.193Z,101.97
2022-12-18T16:27:26.811Z,104.03
2022-12-18T16:29:54.080Z,109.57
2022-12-18T16:32:23.721Z,116.40
2022-12-18T16:34:52.364Z,120.27
2022-12-18T16:37:20.146Z,111.93
2022-12-18T16:39:47.397Z,109.93
2022-12-18T16:42:20.518Z,111.57
2022-12-18T16:44:50.112Z,119.87
2022-12-18T16:47:18.619Z,107.03
2022-12-18T16:49:46.817Z,111.60
2022-12-18T16:52:15.157Z,119.87
2022-12-18T16:54:42.538Z,129.77
2022-12-18T16:57:15.180Z,106.50
2022-12-18T16:59:43.181Z,98.67
2022-12-18T17:02:15.898Z,102.27
2022-12-18T17:04:45.402Z,96.23
2022-12-18T17:07:14.397Z,120.30
2022-12-18T17:09:42.592Z,146.27
2022-12-18T17:12:10.469Z,92.07
2022-12-18T17:14:38.047Z,103.57
2022-12-18T17:17:22.767Z,103.77
2022-12-18T17:19:52.563Z,88.67
2022-12-18T17:22:23.461Z,77.97
2022-12-18T17:24:51.374Z,77.43
2022-12-18T17:27:19.056Z,70.40
2022-12-18T17:29:48.308Z,68.63
2022-12-18T17:32:18.369Z,66.00
2022-12-18T17:34:46.544Z,64.20
2022-12-18T17:37:14.470Z,61.63
2022-12-18T17:39:42.315Z,72.67
2022-12-18T17:42:10.911Z,64.57
2022-12-18T17:44:42.775Z,74.27
2022-12-18T17:47:12.357Z,70.77
2022-12-18T17:49:39.865Z,66.43
2022-12-18T17:52:07.593Z,75.97
2022-12-18T17:54:37.901Z,79.33
2022-12-18T17:57:05.964Z,76.17
2022-12-18T17:59:33.393Z,76.50
2022-12-18T18:02:01.017Z,74.80
2022-12-18T18:04:28.486Z,76.97
2022-12-18T18:06:55.972Z,76.27
2022-12-18T18:09:23.350Z,81.33
2022-12-18T18:12:10.152Z,81.83
2022-12-18T18:14:37.515Z,81.77
2022-12-18T18:17:05.397Z,81.13
2022-12-18T18:19:34.343Z,77.17
2022-12-18T18:22:02.973Z,76.63
2022-12-18T18:24:30.977Z,79.15
2022-12-18T18:27:01.664Z,81.83
2022-12-18T18:29:33.333Z,81.97
2022-12-18T18:32:01.099Z,77.03
2022-12-18T18:34:32.195Z,82.70
2022-12-18T18:37:02.235Z,81.83
2022-12-18T18:39:30.330Z,83.90
2022-12-18T18:41:57.928Z,80.13
2022-12-18T18:44:25.939Z,84.27
2022-12-18T18:46:58.747Z,86.63
2022-12-18T18:49:28.427Z,82.33
2022-12-18T18:51:59.224Z,84.23
2022-12-18T18:54:26.977Z,84.40
2022-12-18T18:59:42.495Z,88.57
2022-12-18T19:02:14.260Z,85.63
2022-12-18T19:04:46.073Z,83.87
2022-12-18T19:07:22.543Z,77.30
2022-12-18T19:10:04.073Z,78.90
2022-12-18T19:12:52.987Z,79.97
2022-12-18T19:15:20.591Z,82.90
2022-12-18T19:17:48.407Z,83.43
2022-12-18T19:20:16.552Z,83.53
2022-12-18T19:22:47.942Z,82.37
2022-12-18T19:25:38.576Z,81.07
2022-12-18T19:28:16.427Z,78.43
2022-12-18T19:30:49.086Z,79.83
2022-12-18T19:33:45.483Z,82.87
2022-12-18T19:36:20.284Z,84.43
2022-12-18T19:38:50.213Z,76.77
2022-12-18T19:41:19.132Z,78.83
2022-12-18T19:43:47.232Z,72.97
2022-12-18T19:46:20.200Z,80.43
2022-12-18T19:48:48.701Z,79.90
2022-12-18T19:51:24.039Z,88.00
2022-12-18T19:53:58.183Z,80.07
2022-12-18T19:56:30.812Z,81.73
2022-12-18T19:58:58.506Z,83.67
2022-12-18T20:01:28.576Z,75.00
2022-12-18T20:03:57.013Z,76.80
2022-12-18T20:06:31.532Z,76.97
2022-12-18T20:09:04.743Z,73.47
2022-12-18T20:11:41.260Z,80.87
2022-12-18T20:14:12.154Z,72.53
2022-12-18T20:16:39.754Z,76.70
2022-12-18T20:19:10.197Z,74.93
2022-12-18T20:21:38.108Z,81.37
2022-12-18T20:24:08.386Z,68.17
2022-12-18T20:26:35.976Z,74.43
2022-12-18T20:29:03.663Z,77.27
2022-12-18T20:31:31.092Z,72.37
2022-12-18T20:34:01.490Z,71.27
2022-12-18T20:36:30.793Z,74.23
2022-12-18T20:39:01.567Z,70.43
2022-12-18T20:41:38.258Z,72.20
2022-12-18T20:44:21.541Z,68.67
2022-12-18T20:46:57.650Z,80.23
2022-12-18T20:49:27.325Z,66.63
2022-12-18T20:51:57.094Z,69.50
2022-12-18T20:54:27.477Z,65.30
2022-12-18T20:56:55.945Z,67.90
2022-12-18T20:59:25.695Z,67.53
2022-12-18T21:01:53.312Z,63.43
2022-12-18T21:04:22.582Z,64.73
2022-12-18T21:06:59.238Z,67.93
2022-12-18T21:09:38.152Z,70.60
2022-12-18T21:12:32.927Z,66.77
2022-12-18T21:15:10.342Z,63.27
2022-12-18T21:17:44.193Z,62.43
2022-12-18T21:20:17.600Z,61.07
2022-12-18T21:22:46.843Z,65.97
2022-12-18T21:25:14.682Z,60.47
2022-12-18T21:27:41.885Z,61.57
2022-12-18T21:30:09.991Z,63.73
2022-12-18T21:32:37.238Z,74.40
2022-12-18T21:35:05.367Z,66.20
2022-12-18T21:37:32.672Z,68.60
2022-12-18T21:40:00.221Z,65.87
2022-12-18T21:42:45.978Z,63.30
2022-12-18T21:45:13.516Z,66.30
2022-12-18T21:47:40.699Z,62.47
2022-12-18T21:50:08.911Z,63.33
2022-12-18T21:52:36.175Z,66.70
2022-12-18T21:55:09.514Z,68.97
2022-12-18T21:57:39.512Z,74.00
2022-12-18T22:00:19.120Z,67.77
2022-12-18T22:03:01.203Z,75.90
2022-12-18T22:05:36.522Z,80.13
2022-12-18T22:08:04.001Z,76.87
2022-12-18T22:10:31.600Z,75.60
2022-12-18T22:12:59.177Z,74.27
2022-12-18T22:15:26.685Z,75.63
2022-12-18T22:17:58.721Z,68.90
2022-12-18T22:20:29.700Z,75.83
2022-12-18T22:22:57.517Z,75.33
2022-12-18T22:25:25.323Z,70.13
2022-12-18T22:28:11.332Z,77.50
2022-12-18T22:30:39.171Z,78.40
2022-12-18T22:33:06.492Z,82.03
2022-12-18T22:35:33.993Z,68.87
2022-12-18T22:38:01.753Z,76.43
2022-12-18T22:40:30.095Z,76.80
2022-12-18T22:42:59.308Z,80.10
2022-12-18T22:45:27.252Z,77.30
2022-12-18T22:47:54.594Z,68.03
2022-12-18T22:50:22.209Z,77.37
2022-12-18T22:52:49.629Z,83.00
2022-12-18T22:55:17.381Z,80.43
2022-12-18T22:57:49.078Z,80.23
2022-12-18T23:00:24.263Z,85.37
2022-12-18T23:02:59.838Z,88.13
2022-12-18T23:05:30.712Z,83.17
2022-12-18T23:07:58.449Z,95.27
2022-12-18T23:10:27.405Z,82.10
2022-12-18T23:12:54.797Z,83.67
2022-12-18T23:15:27.748Z,79.67
2022-12-18T23:17:58.899Z,79.30
2022-12-18T23:20:27.867Z,80.73
2022-12-18T23:22:55.128Z,77.33
2022-12-18T23:25:24.603Z,78.30
2022-12-18T23:27:51.881Z,75.83
2022-12-18T23:30:20.298Z,69.23
2022-12-18T23:32:48.875Z,74.47
2022-12-18T23:35:17.842Z,67.37
2022-12-18T23:37:59.304Z,68.53
2022-12-18T23:40:33.406Z,64.70
2022-12-18T23:43:00.626Z,65.97
2022-12-18T23:45:28.339Z,62.27
2022-12-18T23:47:55.678Z,63.43
2022-12-18T23:50:26.759Z,66.13
2022-12-18T23:53:03.296Z,63.73
2022-12-18T23:55:39.490Z,68.10
2022-12-18T23:58:09.182Z,63.30
